Time;durP1;ratioP1;P1;durP2;ratioP2;P2;SDS_P1;SDS_P2;PMS_P1;PMS_P2;Temp;Humidity;BMP_temperature;BMP_pressure;BME280_temperature;BME280_humidity;BME280_pressure;Samples;Min_cycle;Max_cycle;Signal;HPM_P1;HPM_P2
2023/10/24 00:01:21;;;;;;;5.03;3.97;;;;;;;;;;5129384;27;20283;-40
2023/10/24 00:03:49;;;;;;;5.40;3.93;;;;;;;;;;5122995;27;20207;-45
2023/10/24 00:06:16;;;;;;;6.20;3.90;;;;;;;;;;5134963;27;20210;-44
2023/10/24 00:08:43;;;;;;;4.33;3.40;;;;;;;;;;5128967;27;20219;-42
2023/10/24 00:11:11;;;;;;;4.87;3.80;;;;;;;;;;5118483;27;20204;-45
2023/10/24 00:13:38;;;;;;;3.93;3.40;;;;;;;;;;5129583;27;20210;-42
2023/10/24 00:16:05;;;;;;;6.97;3.57;;;;;;;;;;5129183;27;20203;-44
2023/10/24 00:18:32;;;;;;;7.67;3.90;;;;;;;;;;5129326;27;20223;-43
2023/10/24 00:21:01;;;;;;;4.47;3.50;;;;;;;;;;5119828;27;20212;-43
2023/10/24 00:23:29;;;;;;;3.07;2.77;;;;;;;;;;5129093;27;20207;-47
2023/10/24 00:25:56;;;;;;;4.53;3.40;;;;;;;;;;5119390;27;20212;-41
2023/10/24 00:28:24;;;;;;;4.87;3.67;;;;;;;;;;5120478;27;20208;-45
2023/10/24 00:30:51;;;;;;;6.70;3.63;;;;;;;;;;5129287;27;20273;-46
2023/10/24 00:33:18;;;;;;;2.83;2.60;;;;;;;;;;5135378;27;20203;-45
2023/10/24 00:35:45;;;;;;;3.23;2.63;;;;;;;;;;5128704;27;20213;-45
2023/10/24 00:38:13;;;;;;;3.97;2.83;;;;;;;;;;5129030;27;20210;-39
2023/10/24 00:40:41;;;;;;;5.17;3.60;;;;;;;;;;5120401;27;20204;-45
2023/10/24 00:43:08;;;;;;;5.33;3.03;;;;;;;;;;5133108;27;20604;-44
2023/10/24 00:45:36;;;;;;;3.23;2.93;;;;;;;;;;5137615;27;20313;-44
2023/10/24 00:48:03;;;;;;;4.37;3.27;;;;;;;;;;5129228;27;20294;-42
2023/10/24 00:50:30;;;;;;;5.33;3.77;;;;;;;;;;5127029;27;20229;-47
2023/10/24 00:52:58;;;;;;;3.93;3.60;;;;;;;;;;5126484;27;20618;-42
2023/10/24 00:55:26;;;;;;;4.03;3.27;;;;;;;;;;5121095;27;20203;-45
2023/10/24 00:57:54;;;;;;;4.70;3.47;;;;;;;;;;5123450;27;20203;-45
2023/10/24 01:00:23;;;;;;;5.60;3.30;;;;;;;;;;5125569;27;20223;-44
2023/10/24 01:02:50;;;;;;;3.57;3.07;;;;;;;;;;5122395;27;20298;-42
2023/10/24 01:05:18;;;;;;;3.30;2.87;;;;;;;;;;5128676;27;20419;-45
2023/10/24 01:07:46;;;;;;;3.77;3.00;;;;;;;;;;5134694;27;20199;-44
2023/10/24 01:10:13;;;;;;;3.40;2.77;;;;;;;;;;5120115;27;20828;-42
2023/10/24 01:12:42;;;;;;;5.30;3.60;;;;;;;;;;5122152;27;20202;-44
2023/10/24 01:15:10;;;;;;;3.90;3.20;;;;;;;;;;5129856;27;20218;-42
2023/10/24 01:17:37;;;;;;;3.80;2.33;;;;;;;;;;5130344;27;20199;-43
2023/10/24 01:20:04;;;;;;;3.30;3.00;;;;;;;;;;5116700;27;20662;-44
2023/10/24 01:22:33;;;;;;;3.43;3.13;;;;;;;;;;5125716;27;20203;-46
2023/10/24 01:25:00;;;;;;;3.40;3.10;;;;;;;;;;5129452;27;20207;-42
2023/10/24 01:27:27;;;;;;;4.73;3.40;;;;;;;;;;5127953;27;20582;-39
2023/10/24 01:29:54;;;;;;;3.23;2.93;;;;;;;;;;5140729;27;20237;-44
2023/10/24 01:32:30;;;;;;;4.17;2.50;;;;;;;;;;5135662;27;20274;-41
2023/10/24 01:34:57;;;;;;;3.77;2.97;;;;;;;;;;5142535;27;20211;-44
2023/10/24 01:37:24;;;;;;;5.10;3.60;;;;;;;;;;5128908;27;20263;-45
2023/10/24 01:39:53;;;;;;;3.73;2.47;;;;;;;;;;5132410;27;20685;-41
2023/10/24 01:42:20;;;;;;;3.40;3.10;;;;;;;;;;5121598;27;20238;-44
2023/10/24 01:44:47;;;;;;;3.40;2.43;;;;;;;;;;5141219;27;20203;-45
2023/10/24 01:47:14;;;;;;;2.60;2.40;;;;;;;;;;5140704;27;20207;-44
2023/10/24 01:49:41;;;;;;;3.43;2.40;;;;;;;;;;5130889;27;20254;-44
2023/10/24 01:52:08;;;;;;;4.37;2.70;;;;;;;;;;5124370;27;20207;-41
2023/10/24 01:54:35;;;;;;;3.67;3.00;;;;;;;;;;5132082;27;20203;-45
2023/10/24 01:57:04;;;;;;;8.13;2.90;;;;;;;;;;5129953;27;20568;-42
2023/10/24 01:59:31;;;;;;;4.03;2.93;;;;;;;;;;5130603;27;20846;-41
2023/10/24 02:01:58;;;;;;;3.67;2.83;;;;;;;;;;5141236;27;20294;-44
2023/10/24 02:04:25;;;;;;;4.27;3.07;;;;;;;;;;5131479;27;20206;-41
2023/10/24 02:06:52;;;;;;;5.37;3.90;;;;;;;;;;5118117;27;20291;-44
2023/10/24 02:09:20;;;;;;;3.93;3.50;;;;;;;;;;5130720;27;20225;-44
2023/10/24 02:11:47;;;;;;;5.87;3.60;;;;;;;;;;5123476;27;20294;-46
2023/10/24 02:14:15;;;;;;;3.87;3.57;;;;;;;;;;5130773;27;20211;-44
2023/10/24 02:16:42;;;;;;;3.30;3.00;;;;;;;;;;5124380;27;20533;-42
2023/10/24 02:19:09;;;;;;;4.20;3.17;;;;;;;;;;5130493;27;20226;-45
2023/10/24 02:21:36;;;;;;;3.90;3.50;;;;;;;;;;5130895;27;20248;-42
2023/10/24 02:24:04;;;;;;;4.90;3.43;;;;;;;;;;5139582;27;20207;-47
2023/10/24 02:26:31;;;;;;;3.17;2.87;;;;;;;;;;5115596;27;20219;-44
2023/10/24 02:28:58;;;;;;;3.40;3.10;;;;;;;;;;5131136;27;20230;-44
2023/10/24 02:31:27;;;;;;;4.07;2.77;;;;;;;;;;5131520;27;20223;-45
2023/10/24 02:33:54;;;;;;;2.50;2.30;;;;;;;;;;5137127;27;20203;-45
2023/10/24 02:36:21;;;;;;;2.60;2.40;;;;;;;;;;5124078;27;20199;-42
2023/10/24 02:38:48;;;;;;;4.10;2.20;;;;;;;;;;5131671;27;20227;-44
2023/10/24 02:41:16;;;;;;;3.27;2.97;;;;;;;;;;5120547;27;20199;-47
2023/10/24 02:43:43;;;;;;;5.20;3.10;;;;;;;;;;5135417;27;20203;-46
2023/10/24 02:46:10;;;;;;;3.50;2.80;;;;;;;;;;5144064;27;20203;-46
2023/10/24 02:48:38;;;;;;;3.67;3.10;;;;;;;;;;5123132;27;20223;-46
2023/10/24 02:51:05;;;;;;;5.97;2.90;;;;;;;;;;5134143;27;20693;-45
2023/10/24 02:53:33;;;;;;;3.73;2.77;;;;;;;;;;5132058;27;20211;-41
2023/10/24 02:56:02;;;;;;;5.40;2.57;;;;;;;;;;5121491;27;20209;-47
2023/10/24 02:58:29;;;;;;;2.97;2.67;;;;;;;;;;5129707;27;20254;-38
2023/10/24 03:00:56;;;;;;;2.90;2.63;;;;;;;;;;5140101;27;20196;-39
2023/10/24 03:03:24;;;;;;;2.90;2.70;;;;;;;;;;5140015;27;20203;-46
2023/10/24 03:05:52;;;;;;;4.90;3.17;;;;;;;;;;5128486;27;20203;-43
2023/10/24 03:08:19;;;;;;;2.40;2.20;;;;;;;;;;5128291;27;20199;-41
2023/10/24 03:10:46;;;;;;;2.77;2.50;;;;;;;;;;5121021;27;20765;-44
2023/10/24 03:13:14;;;;;;;2.20;2.10;;;;;;;;;;5120837;27;20334;-41
2023/10/24 03:15:41;;;;;;;3.67;2.70;;;;;;;;;;5131000;27;20199;-45
2023/10/24 03:18:08;;;;;;;3.87;2.80;;;;;;;;;;5131608;27;20230;-45
2023/10/24 03:20:35;;;;;;;3.60;2.90;;;;;;;;;;5120669;27;20220;-46
2023/10/24 03:23:04;;;;;;;2.30;2.10;;;;;;;;;;5131179;27;20213;-45
2023/10/24 03:25:31;;;;;;;2.80;2.30;;;;;;;;;;5135561;27;20226;-41
2023/10/24 03:27:58;;;;;;;2.50;2.30;;;;;;;;;;5130155;27;20207;-43
2023/10/24 03:30:25;;;;;;;2.83;2.63;;;;;;;;;;5125897;27;20235;-44
2023/10/24 03:32:52;;;;;;;3.33;2.30;;;;;;;;;;5131334;27;20547;-47
2023/10/24 03:35:19;;;;;;;2.37;2.17;;;;;;;;;;5125592;27;20211;-45
2023/10/24 03:37:46;;;;;;;2.60;2.40;;;;;;;;;;5122236;27;20289;-40
2023/10/24 03:40:15;;;;;;;2.93;2.70;;;;;;;;;;5126316;27;20844;-43
2023/10/24 03:42:42;;;;;;;2.93;2.43;;;;;;;;;;5130157;27;20199;-46
2023/10/24 03:45:09;;;;;;;2.43;2.23;;;;;;;;;;5130895;27;20213;-41
2023/10/24 03:47:37;;;;;;;2.90;2.50;;;;;;;;;;5130988;27;20203;-43
2023/10/24 03:50:04;;;;;;;3.20;2.43;;;;;;;;;;5122870;27;20322;-42
2023/10/24 03:52:31;;;;;;;2.33;2.13;;;;;;;;;;5127467;27;20206;-47
2023/10/24 03:54:59;;;;;;;4.43;3.20;;;;;;;;;;5126969;27;20629;-44
2023/10/24 03:57:28;;;;;;;3.00;2.80;;;;;;;;;;5127667;27;20268;-41
2023/10/24 03:59:55;;;;;;;4.00;2.50;;;;;;;;;;5138942;27;20219;-44
2023/10/24 04:02:22;;;;;;;2.77;2.57;;;;;;;;;;5131883;27;20199;-44
2023/10/24 04:04:49;;;;;;;3.80;2.80;;;;;;;;;;5131380;27;20221;-47
2023/10/24 04:07:19;;;;;;;2.70;2.20;;;;;;;;;;5128836;27;20203;-45
2023/10/24 04:09:46;;;;;;;2.80;2.17;;;;;;;;;;5140444;27;20223;-42
2023/10/24 04:12:13;;;;;;;4.40;2.27;;;;;;;;;;5114175;27;20222;-43
2023/10/24 04:14:42;;;;;;;5.23;2.93;;;;;;;;;;5132065;27;20199;-44
2023/10/24 04:17:09;;;;;;;4.13;2.67;;;;;;;;;;5149699;27;20211;-42
2023/10/24 04:19:36;;;;;;;3.10;2.27;;;;;;;;;;5127459;27;20854;-41
2023/10/24 04:22:03;;;;;;;2.83;2.57;;;;;;;;;;5113554;27;20204;-43
2023/10/24 04:24:30;;;;;;;3.17;2.60;;;;;;;;;;5135862;27;20207;-40
2023/10/24 04:26:59;;;;;;;2.63;2.43;;;;;;;;;;5120429;27;20204;-47
2023/10/24 04:29:26;;;;;;;2.77;2.00;;;;;;;;;;5123597;27;20304;-42
2023/10/24 04:31:54;;;;;;;4.83;2.63;;;;;;;;;;5122166;27;20323;-46
2023/10/24 04:34:22;;;;;;;4.00;2.60;;;;;;;;;;5122035;27;20203;-45
2023/10/24 04:36:49;;;;;;;2.53;2.33;;;;;;;;;;5122835;27;20207;-45
2023/10/24 04:39:17;;;;;;;3.10;2.70;;;;;;;;;;5128235;27;20255;-45
2023/10/24 04:41:46;;;;;;;3.07;2.63;;;;;;;;;;5116720;27;20203;-40
2023/10/24 04:44:13;;;;;;;4.63;2.80;;;;;;;;;;5137249;27;20222;-46
2023/10/24 04:46:40;;;;;;;3.60;2.77;;;;;;;;;;5143226;27;20584;-42
2023/10/24 04:49:09;;;;;;;2.67;2.40;;;;;;;;;;5131255;27;20280;-42
2023/10/24 04:51:36;;;;;;;3.20;2.90;;;;;;;;;;5129310;27;20215;-43
2023/10/24 04:54:04;;;;;;;3.13;2.80;;;;;;;;;;5135967;27;20228;-47
2023/10/24 04:56:31;;;;;;;2.93;2.30;;;;;;;;;;5118994;27;20203;-46
2023/10/24 04:58:58;;;;;;;3.30;2.57;;;;;;;;;;5126116;27;20219;-43
2023/10/24 05:01:25;;;;;;;2.70;2.50;;;;;;;;;;5128845;27;20206;-43
2023/10/24 05:03:52;;;;;;;3.40;3.10;;;;;;;;;;5120671;27;20208;-46
2023/10/24 05:06:21;;;;;;;3.83;3.10;;;;;;;;;;5118303;27;20211;-45
2023/10/24 05:08:48;;;;;;;3.10;2.80;;;;;;;;;;5129045;27;20231;-46
2023/10/24 05:11:15;;;;;;;4.03;3.70;;;;;;;;;;5115845;27;20247;-41
2023/10/24 05:13:42;;;;;;;3.37;3.03;;;;;;;;;;5132755;27;20566;-43
2023/10/24 05:16:10;;;;;;;3.97;3.03;;;;;;;;;;5129145;27;20214;-43
2023/10/24 05:18:37;;;;;;;4.07;3.27;;;;;;;;;;5122545;27;20654;-42
2023/10/24 05:21:04;;;;;;;4.20;3.20;;;;;;;;;;5120518;27;20203;-43
2023/10/24 05:23:33;;;;;;;2.67;2.47;;;;;;;;;;5130097;27;20593;-44
2023/10/24 05:26:00;;;;;;;3.50;3.20;;;;;;;;;;5130624;27;20217;-47
2023/10/24 05:28:27;;;;;;;4.60;3.27;;;;;;;;;;5121175;27;20202;-44
2023/10/24 05:30:54;;;;;;;3.53;3.17;;;;;;;;;;5137480;27;20275;-42
2023/10/24 05:33:22;;;;;;;6.67;3.67;;;;;;;;;;5128959;27;20218;-43
2023/10/24 05:35:49;;;;;;;4.13;3.70;;;;;;;;;;5125342;27;20211;-42
2023/10/24 05:38:16;;;;;;;6.30;3.60;;;;;;;;;;5123983;27;20223;-46
2023/10/24 05:40:46;;;;;;;6.13;4.03;;;;;;;;;;5121813;27;20192;-45
2023/10/24 05:43:13;;;;;;;3.47;3.17;;;;;;;;;;5124616;27;20207;-46
2023/10/24 05:45:40;;;;;;;6.43;4.10;;;;;;;;;;5128398;27;20207;-44
2023/10/24 05:48:07;;;;;;;8.53;4.43;;;;;;;;;;5128709;27;20209;-45
2023/10/24 05:50:36;;;;;;;4.37;3.93;;;;;;;;;;5122805;27;20223;-43
2023/10/24 05:53:03;;;;;;;5.83;4.03;;;;;;;;;;5129979;27;20207;-43
2023/10/24 05:55:30;;;;;;;5.47;4.03;;;;;;;;;;5119932;27;20214;-43
2023/10/24 05:57:59;;;;;;;4.63;4.13;;;;;;;;;;5125117;27;20463;-43
2023/10/24 06:00:26;;;;;;;6.80;4.90;;;;;;;;;;5137185;27;20572;-39
2023/10/24 06:02:53;;;;;;;6.17;4.90;;;;;;;;;;5128638;27;20210;-47
2023/10/24 06:05:20;;;;;;;3.80;3.03;;;;;;;;;;5123333;27;20308;-42
2023/10/24 06:07:47;;;;;;;3.07;2.77;;;;;;;;;;5127049;27;20199;-41
2023/10/24 06:10:14;;;;;;;5.00;3.30;;;;;;;;;;5128292;27;20234;-44
2023/10/24 06:12:41;;;;;;;4.73;3.73;;;;;;;;;;5126044;27;20228;-41
2023/10/24 06:15:11;;;;;;;4.40;3.70;;;;;;;;;;5132308;27;20209;-44
2023/10/24 06:17:38;;;;;;;7.17;4.40;;;;;;;;;;5132758;27;20218;-44
2023/10/24 06:20:05;;;;;;;5.57;3.77;;;;;;;;;;5129791;27;20719;-42
2023/10/24 06:22:32;;;;;;;6.50;3.60;;;;;;;;;;5126082;27;20276;-37
2023/10/24 06:25:00;;;;;;;6.33;4.87;;;;;;;;;;5138185;27;20203;-45
2023/10/24 06:27:27;;;;;;;6.23;5.00;;;;;;;;;;5124571;27;20214;-46
2023/10/24 06:29:54;;;;;;;5.83;4.50;;;;;;;;;;5131547;27;20219;-40
2023/10/24 06:32:23;;;;;;;6.63;4.27;;;;;;;;;;5132191;27;20227;-44
2023/10/24 06:34:50;;;;;;;4.07;3.40;;;;;;;;;;5134341;27;20208;-43
2023/10/24 06:37:17;;;;;;;3.07;2.60;;;;;;;;;;5138869;27;20203;-41
2023/10/24 06:39:44;;;;;;;3.40;2.57;;;;;;;;;;5142945;27;20221;-45
2023/10/24 06:42:11;;;;;;;4.70;2.30;;;;;;;;;;5127882;27;20201;-41
2023/10/24 06:44:38;;;;;;;4.63;3.10;;;;;;;;;;5149880;27;20560;-46
2023/10/24 06:47:05;;;;;;;4.30;3.30;;;;;;;;;;5149940;27;20199;-43
2023/10/24 06:49:34;;;;;;;6.07;3.60;;;;;;;;;;5133145;27;20225;-44
2023/10/24 06:52:01;;;;;;;2.67;2.30;;;;;;;;;;5125733;27;20211;-42
2023/10/24 06:54:28;;;;;;;6.23;2.90;;;;;;;;;;5134710;27;20207;-46
2023/10/24 06:56:55;;;;;;;3.37;2.87;;;;;;;;;;5127401;27;20207;-43
2023/10/24 06:59:22;;;;;;;2.53;2.33;;;;;;;;;;5138429;27;20838;-45
2023/10/24 07:01:50;;;;;;;5.57;2.80;;;;;;;;;;5134104;27;20203;-44
2023/10/24 07:04:17;;;;;;;3.47;2.60;;;;;;;;;;5127048;27;20202;-44
2023/10/24 07:06:46;;;;;;;4.33;2.57;;;;;;;;;;5139855;27;20207;-42
2023/10/24 07:09:13;;;;;;;3.13;2.47;;;;;;;;;;5133922;27;20227;-46
2023/10/24 07:11:41;;;;;;;6.57;3.03;;;;;;;;;;5123105;27;20276;-42
2023/10/24 07:14:08;;;;;;;4.20;2.70;;;;;;;;;;5141040;27;20659;-46
2023/10/24 07:16:35;;;;;;;5.13;2.97;;;;;;;;;;5134131;27;20203;-40
2023/10/24 07:19:02;;;;;;;4.63;3.47;;;;;;;;;;5138837;27;20223;-43
2023/10/24 07:21:29;;;;;;;5.77;2.77;;;;;;;;;;5125288;27;20191;-44
2023/10/24 07:23:58;;;;;;;6.73;3.40;;;;;;;;;;5138074;27;20222;-40
2023/10/24 07:26:25;;;;;;;14.07;3.80;;;;;;;;;;5134411;27;20203;-44
2023/10/24 07:28:53;;;;;;;6.17;3.90;;;;;;;;;;5141358;27;20222;-42
2023/10/24 07:31:20;;;;;;;3.97;3.33;;;;;;;;;;5133150;27;20227;-44
2023/10/24 07:33:48;;;;;;;5.03;3.07;;;;;;;;;;5150924;27;20313;-45
2023/10/24 07:36:15;;;;;;;4.20;2.90;;;;;;;;;;5129725;27;20199;-45
2023/10/24 07:38:48;;;;;;;4.10;2.77;;;;;;;;;;5149890;27;20586;-39
2023/10/24 07:41:17;;;;;;;2.50;2.30;;;;;;;;;;5124395;27;20206;-44
2023/10/24 07:43:45;;;;;;;4.23;2.70;;;;;;;;;;5130722;27;20200;-44
2023/10/24 07:46:12;;;;;;;4.70;2.83;;;;;;;;;;5137860;27;20290;-42
2023/10/24 07:48:39;;;;;;;4.57;3.20;;;;;;;;;;5135413;27;20724;-46
2023/10/24 07:51:06;;;;;;;2.60;2.30;;;;;;;;;;5129519;27;20202;-46
2023/10/24 07:53:33;;;;;;;5.27;3.50;;;;;;;;;;5142647;27;20570;-45
2023/10/24 07:56:04;;;;;;;6.17;3.80;;;;;;;;;;5125811;27;20204;-41
2023/10/24 07:58:33;;;;;;;8.20;4.53;;;;;;;;;;5136193;27;20244;-44
2023/10/24 08:01:00;;;;;;;5.53;3.90;;;;;;;;;;5133027;27;20203;-39
2023/10/24 08:03:27;;;;;;;5.63;4.47;;;;;;;;;;5148886;27;20618;-43
2023/10/24 08:05:54;;;;;;;4.90;4.40;;;;;;;;;;5125017;27;20210;-42
2023/10/24 08:08:21;;;;;;;8.13;4.37;;;;;;;;;;5139085;27;20229;-44
2023/10/24 08:10:48;;;;;;;6.07;4.53;;;;;;;;;;5125213;27;20218;-43
2023/10/24 08:13:15;;;;;;;4.90;3.37;;;;;;;;;;5130585;27;20219;-38
2023/10/24 08:15:48;;;;;;;6.30;4.50;;;;;;;;;;5130889;27;20202;-40
2023/10/24 08:18:15;;;;;;;4.43;4.03;;;;;;;;;;5135438;27;20201;-41
2023/10/24 08:20:42;;;;;;;8.17;5.03;;;;;;;;;;5128918;27;20195;-47
2023/10/24 08:23:09;;;;;;;8.93;5.00;;;;;;;;;;5129703;27;20195;-39
2023/10/24 08:25:36;;;;;;;10.63;5.47;;;;;;;;;;5127107;27;20409;-44
2023/10/24 08:28:03;;;;;;;7.43;5.83;;;;;;;;;;5124167;27;20573;-43
2023/10/24 08:30:31;;;;;;;13.70;5.57;;;;;;;;;;5131492;27;20245;-42
2023/10/24 08:33:00;;;;;;;7.27;4.83;;;;;;;;;;5131359;27;20265;-43
2023/10/24 08:35:27;;;;;;;4.60;4.10;;;;;;;;;;5124736;27;20204;-40
2023/10/24 08:37:55;;;;;;;5.20;4.37;;;;;;;;;;5140689;27;20209;-41
2023/10/24 08:40:22;;;;;;;10.23;5.70;;;;;;;;;;5129987;27;20223;-42
2023/10/24 08:42:49;;;;;;;8.77;5.17;;;;;;;;;;5134888;27;20191;-44
2023/10/24 08:45:18;;;;;;;9.23;5.17;;;;;;;;;;5140671;27;20199;-45
2023/10/24 08:47:47;;;;;;;7.67;5.93;;;;;;;;;;5132331;27;20209;-44
2023/10/24 08:50:16;;;;;;;8.17;6.33;;;;;;;;;;5129421;27;20223;-45
2023/10/24 08:52:45;;;;;;;7.60;4.87;;;;;;;;;;5129399;27;20298;-40
2023/10/24 08:55:13;;;;;;;6.20;5.60;;;;;;;;;;5146845;27;20195;-45
2023/10/24 08:57:40;;;;;;;6.87;4.80;;;;;;;;;;5114568;27;20738;-41
2023/10/24 09:00:10;;;;;;;8.00;5.37;;;;;;;;;;5133285;27;20306;-41
2023/10/24 09:02:38;;;;;;;10.00;6.57;;;;;;;;;;5140799;27;20237;-43
2023/10/24 09:05:06;;;;;;;8.97;5.77;;;;;;;;;;5120727;27;20202;-44
2023/10/24 09:07:34;;;;;;;8.90;5.87;;;;;;;;;;5136805;27;20205;-43
2023/10/24 09:10:02;;;;;;;6.90;5.93;;;;;;;;;;5131485;27;20233;-39
2023/10/24 09:12:30;;;;;;;13.73;9.13;;;;;;;;;;5131604;27;20288;-42
2023/10/24 09:14:58;;;;;;;10.03;6.90;;;;;;;;;;5141042;27;20202;-41
2023/10/24 09:17:25;;;;;;;13.07;10.57;;;;;;;;;;5131768;27;20195;-41
2023/10/24 09:19:52;;;;;;;10.17;8.27;;;;;;;;;;5136603;27;20470;-43
2023/10/24 09:22:20;;;;;;;6.70;6.00;;;;;;;;;;5131522;27;20222;-41
2023/10/24 09:24:49;;;;;;;12.23;6.60;;;;;;;;;;5151968;27;20323;-45
2023/10/24 09:27:16;;;;;;;8.03;6.00;;;;;;;;;;5121068;27;20198;-41
2023/10/24 09:29:42;;;;;;;6.90;5.17;;;;;;;;;;5140138;27;20245;-45
2023/10/24 09:32:15;;;;;;;7.87;6.23;;;;;;;;;;5144202;27;20207;-43
2023/10/24 09:34:42;;;;;;;10.10;6.80;;;;;;;;;;5140728;27;20719;-42
2023/10/24 09:37:10;;;;;;;8.23;6.07;;;;;;;;;;5131175;27;20203;-38
2023/10/24 09:39:52;;;;;;;12.73;10.33;;;;;;;;;;5131502;27;20227;-43
2023/10/24 09:42:22;;;;;;;9.93;6.50;;;;;;;;;;5121823;27;20198;-41
2023/10/24 09:44:49;;;;;;;9.70;7.37;;;;;;;;;;5144081;27;20729;-42
2023/10/24 09:47:16;;;;;;;7.97;5.57;;;;;;;;;;5144474;27;20199;-43
2023/10/24 09:49:44;;;;;;;7.87;6.47;;;;;;;;;;5132111;27;20221;-43
2023/10/24 09:52:11;;;;;;;14.17;9.30;;;;;;;;;;5125393;27;20230;-42
2023/10/24 09:54:39;;;;;;;9.77;6.10;;;;;;;;;;5144043;27;20741;-44
2023/10/24 09:57:07;;;;;;;9.40;6.27;;;;;;;;;;5119451;27;20203;-41
2023/10/24 09:59:35;;;;;;;11.13;5.57;;;;;;;;;;5138946;27;20584;-47
2023/10/24 10:02:03;;;;;;;7.73;5.40;;;;;;;;;;5135937;27;20211;-39
2023/10/24 10:04:31;;;;;;;9.53;6.40;;;;;;;;;;5132722;27;20203;-44
2023/10/24 10:06:59;;;;;;;14.00;6.90;;;;;;;;;;5127356;27;20204;-40
2023/10/24 10:09:26;;;;;;;13.00;7.03;;;;;;;;;;5141438;27;20223;-45
2023/10/24 10:11:53;;;;;;;10.53;7.13;;;;;;;;;;5120691;27;20208;-41
2023/10/24 10:14:27;;;;;;;13.47;6.77;;;;;;;;;;5135093;27;20225;-42
2023/10/24 10:17:01;;;;;;;9.50;6.30;;;;;;;;;;5136029;27;20657;-41
2023/10/24 10:19:43;;;;;;;12.43;6.33;;;;;;;;;;5135534;27;20225;-42
2023/10/24 10:22:26;;;;;;;9.53;6.80;;;;;;;;;;5129675;27;20200;-43
2023/10/24 10:25:03;;;;;;;8.37;6.67;;;;;;;;;;5146530;27;20211;-41
2023/10/24 10:27:33;;;;;;;13.03;6.30;;;;;;;;;;5128795;27;20199;-41
2023/10/24 10:30:06;;;;;;;9.60;6.53;;;;;;;;;;5151382;27;20232;-45
2023/10/24 10:32:37;;;;;;;9.50;6.57;;;;;;;;;;5144057;27;20297;-42
2023/10/24 10:35:04;;;;;;;8.87;6.20;;;;;;;;;;5141277;27;20300;-40
2023/10/24 10:37:34;;;;;;;9.40;6.43;;;;;;;;;;5133369;27;20666;-42
2023/10/24 10:40:23;;;;;;;7.87;6.10;;;;;;;;;;5131771;27;20234;-46
2023/10/24 10:42:51;;;;;;;11.03;7.70;;;;;;;;;;5126636;27;20200;-43
2023/10/24 10:45:30;;;;;;;8.63;6.50;;;;;;;;;;5139402;27;20198;-42
2023/10/24 10:47:58;;;;;;;8.53;6.50;;;;;;;;;;5146625;27;20199;-42
2023/10/24 10:50:28;;;;;;;8.33;6.37;;;;;;;;;;5139254;27;20223;-43
2023/10/24 10:53:02;;;;;;;7.60;5.47;;;;;;;;;;5119141;27;20216;-41
2023/10/24 10:55:42;;;;;;;7.73;5.60;;;;;;;;;;5129277;27;20203;-43
2023/10/24 10:58:20;;;;;;;10.40;6.00;;;;;;;;;;5135506;27;20250;-41
2023/10/24 11:00:55;;;;;;;10.00;6.40;;;;;;;;;;5143995;27;20197;-44
2023/10/24 11:03:38;;;;;;;9.53;6.10;;;;;;;;;;5128114;27;20199;-43
2023/10/24 11:06:14;;;;;;;7.10;5.23;;;;;;;;;;5126250;27;20200;-43
2023/10/24 11:08:42;;;;;;;9.17;6.20;;;;;;;;;;5134555;27;20245;-42
2023/10/24 11:11:10;;;;;;;8.33;6.80;;;;;;;;;;5128516;27;20207;-45
2023/10/24 11:13:38;;;;;;;8.93;6.03;;;;;;;;;;5123259;27;20219;-43
2023/10/24 11:16:07;;;;;;;8.23;6.40;;;;;;;;;;5142886;27;20206;-42
2023/10/24 11:18:35;;;;;;;6.07;4.77;;;;;;;;;;5131170;27;20291;-45
2023/10/24 11:21:03;;;;;;;6.80;5.33;;;;;;;;;;5133704;27;20203;-39
2023/10/24 11:23:31;;;;;;;8.73;5.70;;;;;;;;;;5143238;27;20225;-43
2023/10/24 11:25:59;;;;;;;7.90;5.33;;;;;;;;;;5131322;27;20619;-46
2023/10/24 11:28:27;;;;;;;7.77;6.37;;;;;;;;;;5129044;27;20294;-41
2023/10/24 11:30:54;;;;;;;13.53;7.37;;;;;;;;;;5152002;27;20222;-42
2023/10/24 11:33:22;;;;;;;11.30;6.70;;;;;;;;;;5138014;27;20226;-42
2023/10/24 11:35:49;;;;;;;7.07;6.37;;;;;;;;;;5132215;27;20211;-41
2023/10/24 11:38:17;;;;;;;9.53;6.20;;;;;;;;;;5125761;27;20559;-42
2023/10/24 11:40:47;;;;;;;9.07;6.13;;;;;;;;;;5134908;27;20295;-44
2023/10/24 11:43:14;;;;;;;8.70;6.40;;;;;;;;;;5128866;27;20545;-42
2023/10/24 11:45:42;;;;;;;8.97;6.87;;;;;;;;;;5142484;27;20206;-40
2023/10/24 11:48:09;;;;;;;9.67;6.90;;;;;;;;;;5141811;27;20219;-45
2023/10/24 11:50:38;;;;;;;22.07;14.10;;;;;;;;;;5126537;27;20203;-43
2023/10/24 11:53:05;;;;;;;17.93;12.30;;;;;;;;;;5141973;27;20229;-43
2023/10/24 11:55:32;;;;;;;9.20;8.00;;;;;;;;;;5130064;27;20200;-41
2023/10/24 11:58:00;;;;;;;11.87;7.73;;;;;;;;;;5125860;27;20637;-40
2023/10/24 12:00:30;;;;;;;10.03;7.10;;;;;;;;;;5141901;27;20234;-45
2023/10/24 12:02:57;;;;;;;9.73;6.70;;;;;;;;;;5143598;27;20558;-45
2023/10/24 12:05:25;;;;;;;15.47;10.67;;;;;;;;;;5122237;27;20214;-44
2023/10/24 12:07:57;;;;;;;9.20;7.17;;;;;;;;;;5129906;27;20214;-43
2023/10/24 12:10:24;;;;;;;12.67;9.17;;;;;;;;;;5116983;27;20223;-45
2023/10/24 12:12:51;;;;;;;9.00;7.73;;;;;;;;;;5122802;27;20703;-42
2023/10/24 12:15:18;;;;;;;9.73;7.37;;;;;;;;;;5123948;27;20212;-42
2023/10/24 12:17:46;;;;;;;11.83;7.63;;;;;;;;;;5139776;27;20202;-43
2023/10/24 12:20:13;;;;;;;10.80;7.80;;;;;;;;;;5122307;27;20319;-40
2023/10/24 12:22:43;;;;;;;8.40;6.53;;;;;;;;;;5133434;27;20660;-43
2023/10/24 12:25:11;;;;;;;7.63;6.77;;;;;;;;;;5129497;27;20210;-43
2023/10/24 12:27:38;;;;;;;9.83;7.27;;;;;;;;;;5120065;27;20675;-45
2023/10/24 12:30:06;;;;;;;9.87;7.37;;;;;;;;;;5132288;27;20345;-42
2023/10/24 12:32:33;;;;;;;9.97;7.43;;;;;;;;;;5135967;27;20191;-41
2023/10/24 12:35:00;;;;;;;10.43;7.80;;;;;;;;;;5127080;27;20506;-41
2023/10/24 12:37:29;;;;;;;7.67;6.90;;;;;;;;;;5139257;27;20199;-43
2023/10/24 12:39:56;;;;;;;7.50;6.67;;;;;;;;;;5131402;27;20231;-42
2023/10/24 12:42:24;;;;;;;8.83;7.10;;;;;;;;;;5129068;27;20209;-44
2023/10/24 12:44:51;;;;;;;8.60;7.20;;;;;;;;;;5132505;27;20213;-43
2023/10/24 12:47:20;;;;;;;9.80;7.90;;;;;;;;;;5140053;27;20199;-43
2023/10/24 12:49:47;;;;;;;8.93;7.63;;;;;;;;;;5126725;27;20226;-44
2023/10/24 12:52:14;;;;;;;9.73;7.00;;;;;;;;;;5140392;27;20210;-42
2023/10/24 12:54:41;;;;;;;8.10;7.03;;;;;;;;;;5132521;27;20215;-43
2023/10/24 12:57:08;;;;;;;10.17;6.97;;;;;;;;;;5117537;27;20817;-40
2023/10/24 12:59:36;;;;;;;10.37;7.30;;;;;;;;;;5137813;27;20215;-43
2023/10/24 13:02:04;;;;;;;11.17;6.90;;;;;;;;;;5134610;27;20199;-41
2023/10/24 13:04:31;;;;;;;9.97;7.03;;;;;;;;;;5122302;27;20203;-38
2023/10/24 13:06:59;;;;;;;8.80;6.40;;;;;;;;;;5123916;27;20213;-46
2023/10/24 13:09:26;;;;;;;7.27;6.23;;;;;;;;;;5132338;27;20306;-45
2023/10/24 13:11:53;;;;;;;8.73;6.43;;;;;;;;;;5118387;27;20570;-45
2023/10/24 13:14:20;;;;;;;7.73;6.73;;;;;;;;;;5123536;27;20996;-43
2023/10/24 13:16:49;;;;;;;6.80;6.10;;;;;;;;;;5138732;27;20641;-41
2023/10/24 13:19:16;;;;;;;11.30;6.77;;;;;;;;;;5135320;27;20224;-43
2023/10/24 13:21:43;;;;;;;8.93;7.10;;;;;;;;;;5136657;27;20225;-42
2023/10/24 13:24:10;;;;;;;7.07;6.07;;;;;;;;;;5153096;27;20209;-46
2023/10/24 13:26:37;;;;;;;9.30;6.10;;;;;;;;;;5130325;27;20203;-43
2023/10/24 13:29:04;;;;;;;8.23;5.93;;;;;;;;;;5128402;27;20233;-42
2023/10/24 13:31:31;;;;;;;9.07;7.10;;;;;;;;;;5136473;27;20574;-42
2023/10/24 13:34:00;;;;;;;9.23;6.87;;;;;;;;;;5135870;27;20227;-43
2023/10/24 13:36:27;;;;;;;8.90;6.33;;;;;;;;;;5124939;27;20567;-40
2023/10/24 13:38:54;;;;;;;6.23;5.50;;;;;;;;;;5131723;27;20304;-42
2023/10/24 13:41:21;;;;;;;5.47;4.97;;;;;;;;;;5130232;27;20664;-45
2023/10/24 13:43:49;;;;;;;6.07;4.90;;;;;;;;;;5135511;27;20358;-43
2023/10/24 13:46:16;;;;;;;7.03;4.43;;;;;;;;;;5145014;27;20259;-44
2023/10/24 13:48:43;;;;;;;6.70;4.87;;;;;;;;;;5129874;27;20230;-43
2023/10/24 13:51:11;;;;;;;5.63;5.13;;;;;;;;;;5127844;27;20210;-43
2023/10/24 13:53:39;;;;;;;8.07;6.03;;;;;;;;;;5135976;27;20219;-43
2023/10/24 13:56:06;;;;;;;9.50;6.93;;;;;;;;;;5124466;27;20204;-46
2023/10/24 13:58:33;;;;;;;9.47;6.27;;;;;;;;;;5121426;27;20306;-45
2023/10/24 14:01:00;;;;;;;9.20;6.43;;;;;;;;;;5135327;27;20199;-42
2023/10/24 14:03:28;;;;;;;12.83;6.43;;;;;;;;;;5135882;27;20206;-42
2023/10/24 14:05:57;;;;;;;10.80;6.73;;;;;;;;;;5126232;27;20562;-41
2023/10/24 14:08:27;;;;;;;8.10;6.37;;;;;;;;;;5126963;27;20196;-39
2023/10/24 14:10:54;;;;;;;8.67;6.67;;;;;;;;;;5130787;27;20207;-43
2023/10/24 14:13:22;;;;;;;8.43;6.37;;;;;;;;;;5132047;27;20326;-43
2023/10/24 14:15:49;;;;;;;7.60;6.77;;;;;;;;;;5132716;27;20203;-46
2023/10/24 14:18:17;;;;;;;10.33;6.57;;;;;;;;;;5133108;27;20302;-45
2023/10/24 14:20:44;;;;;;;7.93;6.37;;;;;;;;;;5121843;27;20196;-39
2023/10/24 14:23:13;;;;;;;7.70;5.83;;;;;;;;;;5132944;27;20207;-44
2023/10/24 14:25:42;;;;;;;10.33;6.37;;;;;;;;;;5131948;27;20264;-43
2023/10/24 14:28:09;;;;;;;9.40;7.03;;;;;;;;;;5126247;27;20212;-42
2023/10/24 14:30:36;;;;;;;5.27;3.77;;;;;;;;;;5134083;27;20219;-41
2023/10/24 14:33:03;;;;;;;5.33;2.83;;;;;;;;;;5143251;27;20199;-44
2023/10/24 14:35:30;;;;;;;3.67;1.70;;;;;;;;;;5125099;27;20245;-41
2023/10/24 14:37:57;;;;;;;4.07;1.70;;;;;;;;;;5131168;27;20218;-41
2023/10/24 14:40:25;;;;;;;1.30;1.20;;;;;;;;;;5130792;27;20222;-40
2023/10/24 14:42:53;;;;;;;2.07;1.30;;;;;;;;;;5133679;27;20226;-43
2023/10/24 14:45:21;;;;;;;4.10;1.63;;;;;;;;;;5126365;27;20206;-39